sensor_id;sensor_type;location;lat;lon;timestamp;P1;durP1;ratioP1;P2;durP2;ratioP2
8714;SDS011;4394;51.208;8.904;2023-07-20T00:00:18;6.50;;;4.40;;
8714;SDS011;4394;51.208;8.904;2023-07-20T00:03:10;4.40;;;4.00;;
8714;SDS011;4394;51.208;8.904;2023-07-20T00:05:59;4.67;;;3.83;;
8714;SDS011;4394;51.208;8.904;2023-07-20T00:08:47;4.90;;;3.80;;
8714;SDS011;4394;51.208;8.904;2023-07-20T00:11:35;4.27;;;3.70;;
8714;SDS011;4394;51.208;8.904;2023-07-20T00:14:26;4.20;;;3.80;;
8714;SDS011;4394;51.208;8.904;2023-07-20T00:17:14;6.50;;;4.13;;
8714;SDS011;4394;51.208;8.904;2023-07-20T00:20:02;4.40;;;4.00;;
8714;SDS011;4394;51.208;8.904;2023-07-20T00:22:51;4.70;;;4.00;;
8714;SDS011;4394;51.208;8.904;2023-07-20T00:25:41;6.17;;;3.90;;
8714;SDS011;4394;51.208;8.904;2023-07-20T00:28:29;8.57;;;4.37;;
8714;SDS011;4394;51.208;8.904;2023-07-20T00:31:18;4.50;;;4.07;;
8714;SDS011;4394;51.208;8.904;2023-07-20T00:34:07;5.88;;;4.55;;
8714;SDS011;4394;51.208;8.904;2023-07-20T00:36:55;5.27;;;4.77;;
8714;SDS011;4394;51.208;8.904;2023-07-20T00:39:43;6.10;;;4.40;;
8714;SDS011;4394;51.208;8.904;2023-07-20T00:42:31;6.77;;;4.37;;
8714;SDS011;4394;51.208;8.904;2023-07-20T00:45:19;5.97;;;4.63;;
8714;SDS011;4394;51.208;8.904;2023-07-20T00:48:08;4.23;;;3.83;;
8714;SDS011;4394;51.208;8.904;2023-07-20T00:50:57;6.50;;;4.40;;
8714;SDS011;4394;51.208;8.904;2023-07-20T00:53:47;4.63;;;3.93;;
8714;SDS011;4394;51.208;8.904;2023-07-20T00:56:35;4.40;;;3.77;;
8714;SDS011;4394;51.208;8.904;2023-07-20T00:59:23;4.30;;;3.90;;
8714;SDS011;4394;51.208;8.904;2023-07-20T01:02:11;4.30;;;3.90;;
8714;SDS011;4394;51.208;8.904;2023-07-20T01:05:01;4.53;;;4.13;;
8714;SDS011;4394;51.208;8.904;2023-07-20T01:07:51;5.50;;;4.13;;
8714;SDS011;4394;51.208;8.904;2023-07-20T01:10:46;4.60;;;4.20;;
8714;SDS011;4394;51.208;8.904;2023-07-20T01:13:38;4.90;;;4.20;;
8714;SDS011;4394;51.208;8.904;2023-07-20T01:16:27;7.30;;;3.93;;
8714;SDS011;4394;51.208;8.904;2023-07-20T01:19:15;5.03;;;4.07;;
8714;SDS011;4394;51.208;8.904;2023-07-20T01:22:07;5.57;;;4.00;;
8714;SDS011;4394;51.208;8.904;2023-07-20T01:25:08;5.23;;;4.17;;
8714;SDS011;4394;51.208;8.904;2023-07-20T01:28:22;4.23;;;3.83;;
8714;SDS011;4394;51.208;8.904;2023-07-20T01:31:26;5.60;;;4.60;;
8714;SDS011;4394;51.208;8.904;2023-07-20T01:34:17;4.30;;;3.90;;
8714;SDS011;4394;51.208;8.904;2023-07-20T01:37:06;3.90;;;3.50;;
8714;SDS011;4394;51.208;8.904;2023-07-20T01:39:55;5.97;;;4.00;;
8714;SDS011;4394;51.208;8.904;2023-07-20T01:42:45;5.80;;;3.67;;
8714;SDS011;4394;51.208;8.904;2023-07-20T01:45:33;4.53;;;3.77;;
8714;SDS011;4394;51.208;8.904;2023-07-20T01:48:23;4.67;;;3.60;;
8714;SDS011;4394;51.208;8.904;2023-07-20T01:51:11;3.93;;;3.50;;
8714;SDS011;4394;51.208;8.904;2023-07-20T01:54:00;4.17;;;3.73;;
8714;SDS011;4394;51.208;8.904;2023-07-20T01:56:48;5.30;;;3.57;;
8714;SDS011;4394;51.208;8.904;2023-07-20T01:59:36;7.03;;;3.73;;
8714;SDS011;4394;51.208;8.904;2023-07-20T02:02:26;4.03;;;3.40;;
8714;SDS011;4394;51.208;8.904;2023-07-20T02:05:16;4.20;;;3.40;;
8714;SDS011;4394;51.208;8.904;2023-07-20T02:08:04;4.90;;;3.60;;
8714;SDS011;4394;51.208;8.904;2023-07-20T02:10:52;4.30;;;3.17;;
8714;SDS011;4394;51.208;8.904;2023-07-20T02:13:40;5.00;;;3.80;;
8714;SDS011;4394;51.208;8.904;2023-07-20T02:16:28;4.40;;;3.20;;
8714;SDS011;4394;51.208;8.904;2023-07-20T02:19:17;5.40;;;3.70;;
8714;SDS011;4394;51.208;8.904;2023-07-20T02:22:06;4.90;;;3.43;;
8714;SDS011;4394;51.208;8.904;2023-07-20T02:24:55;3.50;;;3.20;;
8714;SDS011;4394;51.208;8.904;2023-07-20T02:27:43;3.77;;;2.93;;
8714;SDS011;4394;51.208;8.904;2023-07-20T02:30:31;4.80;;;3.33;;
8714;SDS011;4394;51.208;8.904;2023-07-20T02:33:21;5.37;;;3.27;;
8714;SDS011;4394;51.208;8.904;2023-07-20T02:36:09;3.60;;;3.27;;
8714;SDS011;4394;51.208;8.904;2023-07-20T02:38:58;4.10;;;3.38;;
8714;SDS011;4394;51.208;8.904;2023-07-20T02:41:46;4.77;;;3.37;;
8714;SDS011;4394;51.208;8.904;2023-07-20T02:44:34;3.97;;;2.90;;
8714;SDS011;4394;51.208;8.904;2023-07-20T02:47:22;4.37;;;3.43;;
8714;SDS011;4394;51.208;8.904;2023-07-20T02:50:10;4.57;;;4.05;;
8714;SDS011;4394;51.208;8.904;2023-07-20T02:53:00;5.37;;;3.90;;
8714;SDS011;4394;51.208;8.904;2023-07-20T02:55:49;4.00;;;3.57;;
8714;SDS011;4394;51.208;8.904;2023-07-20T02:58:40;3.83;;;3.53;;
8714;SDS011;4394;51.208;8.904;2023-07-20T03:01:32;5.57;;;3.80;;
8714;SDS011;4394;51.208;8.904;2023-07-20T03:04:20;4.90;;;3.20;;
8714;SDS011;4394;51.208;8.904;2023-07-20T03:07:08;6.07;;;4.20;;
8714;SDS011;4394;51.208;8.904;2023-07-20T03:09:56;7.20;;;4.20;;
8714;SDS011;4394;51.208;8.904;2023-07-20T03:12:46;5.97;;;4.00;;
8714;SDS011;4394;51.208;8.904;2023-07-20T03:15:34;6.63;;;4.00;;
8714;SDS011;4394;51.208;8.904;2023-07-20T03:18:22;4.87;;;4.00;;
8714;SDS011;4394;51.208;8.904;2023-07-20T03:21:10;6.67;;;3.93;;
8714;SDS011;4394;51.208;8.904;2023-07-20T03:23:59;5.23;;;4.10;;
8714;SDS011;4394;51.208;8.904;2023-07-20T03:26:47;6.17;;;4.43;;
8714;SDS011;4394;51.208;8.904;2023-07-20T03:29:36;7.57;;;4.67;;
8714;SDS011;4394;51.208;8.904;2023-07-20T03:32:24;6.30;;;5.07;;
8714;SDS011;4394;51.208;8.904;2023-07-20T03:35:12;6.63;;;5.53;;
8714;SDS011;4394;51.208;8.904;2023-07-20T03:38:02;8.73;;;6.20;;
8714;SDS011;4394;51.208;8.904;2023-07-20T03:40:50;6.30;;;5.53;;
8714;SDS011;4394;51.208;8.904;2023-07-20T03:43:39;6.30;;;5.47;;
8714;SDS011;4394;51.208;8.904;2023-07-20T03:46:28;7.90;;;5.67;;
8714;SDS011;4394;51.208;8.904;2023-07-20T03:49:16;9.80;;;5.90;;
8714;SDS011;4394;51.208;8.904;2023-07-20T03:52:04;7.67;;;5.90;;
8714;SDS011;4394;51.208;8.904;2023-07-20T03:54:52;6.83;;;6.13;;
8714;SDS011;4394;51.208;8.904;2023-07-20T03:57:41;8.63;;;6.20;;
8714;SDS011;4394;51.208;8.904;2023-07-20T04:00:29;7.17;;;6.13;;
8714;SDS011;4394;51.208;8.904;2023-07-20T04:03:18;6.87;;;5.87;;
8714;SDS011;4394;51.208;8.904;2023-07-20T04:06:07;8.20;;;6.50;;
8714;SDS011;4394;51.208;8.904;2023-07-20T04:08:55;7.97;;;6.60;;
8714;SDS011;4394;51.208;8.904;2023-07-20T04:11:43;8.00;;;6.80;;
8714;SDS011;4394;51.208;8.904;2023-07-20T04:14:31;9.00;;;6.77;;
8714;SDS011;4394;51.208;8.904;2023-07-20T04:17:19;8.03;;;7.10;;
8714;SDS011;4394;51.208;8.904;2023-07-20T04:20:08;9.33;;;6.90;;
8714;SDS011;4394;51.208;8.904;2023-07-20T04:22:57;6.77;;;6.10;;
8714;SDS011;4394;51.208;8.904;2023-07-20T04:25:45;9.43;;;5.97;;
8714;SDS011;4394;51.208;8.904;2023-07-20T04:28:33;5.47;;;4.93;;
8714;SDS011;4394;51.208;8.904;2023-07-20T04:31:21;6.70;;;5.30;;
8714;SDS011;4394;51.208;8.904;2023-07-20T04:34:09;7.07;;;6.37;;
8714;SDS011;4394;51.208;8.904;2023-07-20T04:36:59;7.73;;;6.87;;
8714;SDS011;4394;51.208;8.904;2023-07-20T04:39:47;7.00;;;6.27;;
8714;SDS011;4394;51.208;8.904;2023-07-20T04:42:35;9.67;;;6.33;;
8714;SDS011;4394;51.208;8.904;2023-07-20T04:45:23;6.73;;;6.03;;
8714;SDS011;4394;51.208;8.904;2023-07-20T04:48:12;7.33;;;5.53;;
8714;SDS011;4394;51.208;8.904;2023-07-20T04:51:00;5.53;;;5.03;;
8714;SDS011;4394;51.208;8.904;2023-07-20T04:53:50;7.57;;;5.60;;
8714;SDS011;4394;51.208;8.904;2023-07-20T04:56:38;6.43;;;5.47;;
8714;SDS011;4394;51.208;8.904;2023-07-20T04:59:26;7.70;;;6.27;;
8714;SDS011;4394;51.208;8.904;2023-07-20T05:02:14;7.90;;;7.07;;
8714;SDS011;4394;51.208;8.904;2023-07-20T05:05:02;6.93;;;6.20;;
8714;SDS011;4394;51.208;8.904;2023-07-20T05:07:52;6.53;;;5.93;;
8714;SDS011;4394;51.208;8.904;2023-07-20T05:10:42;7.00;;;6.30;;
8714;SDS011;4394;51.208;8.904;2023-07-20T05:13:30;6.00;;;5.50;;
8714;SDS011;4394;51.208;8.904;2023-07-20T05:16:18;6.20;;;5.60;;
8714;SDS011;4394;51.208;8.904;2023-07-20T05:19:06;6.50;;;5.90;;
8714;SDS011;4394;51.208;8.904;2023-07-20T05:21:54;7.73;;;5.30;;
8714;SDS011;4394;51.208;8.904;2023-07-20T05:24:42;6.10;;;5.37;;
8714;SDS011;4394;51.208;8.904;2023-07-20T05:27:32;6.80;;;5.10;;
8714;SDS011;4394;51.208;8.904;2023-07-20T05:30:20;5.40;;;4.93;;
8714;SDS011;4394;51.208;8.904;2023-07-20T05:33:08;5.23;;;4.70;;
8714;SDS011;4394;51.208;8.904;2023-07-20T05:35:56;5.70;;;5.10;;
8714;SDS011;4394;51.208;8.904;2023-07-20T05:38:44;5.53;;;4.80;;
8714;SDS011;4394;51.208;8.904;2023-07-20T05:41:32;5.57;;;4.97;;
8714;SDS011;4394;51.208;8.904;2023-07-20T05:44:22;5.30;;;4.80;;
8714;SDS011;4394;51.208;8.904;2023-07-20T05:47:10;5.27;;;4.77;;
8714;SDS011;4394;51.208;8.904;2023-07-20T05:49:58;5.40;;;4.90;;
8714;SDS011;4394;51.208;8.904;2023-07-20T05:52:46;5.50;;;5.00;;
8714;SDS011;4394;51.208;8.904;2023-07-20T05:55:34;6.15;;;5.10;;
8714;SDS011;4394;51.208;8.904;2023-07-20T05:58:22;5.47;;;4.97;;
8714;SDS011;4394;51.208;8.904;2023-07-20T06:01:12;5.23;;;4.60;;
8714;SDS011;4394;51.208;8.904;2023-07-20T06:04:00;4.70;;;4.20;;
8714;SDS011;4394;51.208;8.904;2023-07-20T06:06:50;4.40;;;4.00;;
8714;SDS011;4394;51.208;8.904;2023-07-20T06:09:38;5.13;;;4.30;;
8714;SDS011;4394;51.208;8.904;2023-07-20T06:12:26;4.53;;;4.00;;
8714;SDS011;4394;51.208;8.904;2023-07-20T06:15:24;6.20;;;4.63;;
8714;SDS011;4394;51.208;8.904;2023-07-20T06:18:14;4.30;;;3.90;;
8714;SDS011;4394;51.208;8.904;2023-07-20T06:21:02;6.30;;;4.73;;
8714;SDS011;4394;51.208;8.904;2023-07-20T06:23:51;4.73;;;4.23;;
8714;SDS011;4394;51.208;8.904;2023-07-20T06:26:39;5.53;;;4.80;;
8714;SDS011;4394;51.208;8.904;2023-07-20T06:29:27;5.83;;;5.03;;
8714;SDS011;4394;51.208;8.904;2023-07-20T06:32:15;5.97;;;5.10;;
8714;SDS011;4394;51.208;8.904;2023-07-20T06:35:05;6.03;;;5.47;;
8714;SDS011;4394;51.208;8.904;2023-07-20T06:37:54;5.60;;;5.10;;
8714;SDS011;4394;51.208;8.904;2023-07-20T06:41:02;7.30;;;5.53;;
8714;SDS011;4394;51.208;8.904;2023-07-20T06:43:53;6.40;;;5.70;;
8714;SDS011;4394;51.208;8.904;2023-07-20T06:46:44;8.20;;;6.53;;
8714;SDS011;4394;51.208;8.904;2023-07-20T06:49:32;8.23;;;6.90;;
8714;SDS011;4394;51.208;8.904;2023-07-20T06:52:21;7.43;;;6.43;;
8714;SDS011;4394;51.208;8.904;2023-07-20T06:55:09;7.83;;;6.50;;
8714;SDS011;4394;51.208;8.904;2023-07-20T06:57:57;7.30;;;5.80;;
8714;SDS011;4394;51.208;8.904;2023-07-20T07:00:46;7.97;;;6.10;;
8714;SDS011;4394;51.208;8.904;2023-07-20T07:03:34;6.93;;;6.30;;
8714;SDS011;4394;51.208;8.904;2023-07-20T07:06:23;9.73;;;6.60;;
8714;SDS011;4394;51.208;8.904;2023-07-20T07:09:13;6.70;;;6.00;;
8714;SDS011;4394;51.208;8.904;2023-07-20T07:12:01;7.17;;;6.10;;
8714;SDS011;4394;51.208;8.904;2023-07-20T07:14:50;6.73;;;6.13;;
8714;SDS011;4394;51.208;8.904;2023-07-20T07:17:40;7.17;;;6.17;;
8714;SDS011;4394;51.208;8.904;2023-07-20T07:20:29;5.53;;;4.83;;
8714;SDS011;4394;51.208;8.904;2023-07-20T07:23:18;5.60;;;4.87;;
8714;SDS011;4394;51.208;8.904;2023-07-20T07:26:07;4.40;;;4.00;;
8714;SDS011;4394;51.208;8.904;2023-07-20T07:28:56;4.63;;;4.23;;
8714;SDS011;4394;51.208;8.904;2023-07-20T07:31:44;6.53;;;4.57;;
8714;SDS011;4394;51.208;8.904;2023-07-20T07:34:32;4.03;;;3.50;;
8714;SDS011;4394;51.208;8.904;2023-07-20T07:37:21;3.77;;;3.40;;
8714;SDS011;4394;51.208;8.904;2023-07-20T07:40:09;3.80;;;3.00;;
8714;SDS011;4394;51.208;8.904;2023-07-20T07:42:59;3.30;;;3.00;;
8714;SDS011;4394;51.208;8.904;2023-07-20T07:45:48;4.33;;;3.47;;
8714;SDS011;4394;51.208;8.904;2023-07-20T07:48:36;4.20;;;3.37;;
8714;SDS011;4394;51.208;8.904;2023-07-20T07:51:24;2.70;;;2.43;;
8714;SDS011;4394;51.208;8.904;2023-07-20T07:54:13;2.70;;;1.67;;
8714;SDS011;4394;51.208;8.904;2023-07-20T07:57:01;1.50;;;1.40;;
8714;SDS011;4394;51.208;8.904;2023-07-20T07:59:51;2.67;;;1.50;;
8714;SDS011;4394;51.208;8.904;2023-07-20T08:02:39;2.80;;;1.80;;
8714;SDS011;4394;51.208;8.904;2023-07-20T08:05:27;1.50;;;1.40;;
8714;SDS011;4394;51.208;8.904;2023-07-20T08:08:15;1.73;;;1.43;;
8714;SDS011;4394;51.208;8.904;2023-07-20T08:11:06;2.17;;;1.30;;
8714;SDS011;4394;51.208;8.904;2023-07-20T08:13:54;1.33;;;1.23;;
8714;SDS011;4394;51.208;8.904;2023-07-20T08:16:43;1.60;;;1.23;;
8714;SDS011;4394;51.208;8.904;2023-07-20T08:19:32;2.03;;;1.80;;
8714;SDS011;4394;51.208;8.904;2023-07-20T08:22:21;1.60;;;1.50;;
8714;SDS011;4394;51.208;8.904;2023-07-20T08:25:09;1.87;;;1.70;;
8714;SDS011;4394;51.208;8.904;2023-07-20T08:27:57;1.93;;;1.70;;
8714;SDS011;4394;51.208;8.904;2023-07-20T08:30:47;1.70;;;1.60;;
8714;SDS011;4394;51.208;8.904;2023-07-20T08:33:37;2.10;;;1.90;;
8714;SDS011;4394;51.208;8.904;2023-07-20T08:36:25;3.03;;;2.80;;
8714;SDS011;4394;51.208;8.904;2023-07-20T08:39:13;3.37;;;3.07;;
8714;SDS011;4394;51.208;8.904;2023-07-20T08:42:02;3.13;;;2.83;;
8714;SDS011;4394;51.208;8.904;2023-07-20T08:44:52;3.13;;;2.83;;
8714;SDS011;4394;51.208;8.904;2023-07-20T08:47:42;2.70;;;2.50;;
8714;SDS011;4394;51.208;8.904;2023-07-20T08:50:34;2.90;;;2.70;;
8714;SDS011;4394;51.208;8.904;2023-07-20T08:53:23;5.63;;;3.00;;
8714;SDS011;4394;51.208;8.904;2023-07-20T08:56:11;3.03;;;2.73;;
8714;SDS011;4394;51.208;8.904;2023-07-20T08:59:00;3.90;;;3.50;;
8714;SDS011;4394;51.208;8.904;2023-07-20T09:01:49;3.70;;;3.40;;
8714;SDS011;4394;51.208;8.904;2023-07-20T09:04:38;3.33;;;3.03;;
8714;SDS011;4394;51.208;8.904;2023-07-20T09:07:28;3.37;;;2.97;;
8714;SDS011;4394;51.208;8.904;2023-07-20T09:10:16;4.37;;;3.37;;
8714;SDS011;4394;51.208;8.904;2023-07-20T09:13:05;4.77;;;4.37;;
8714;SDS011;4394;51.208;8.904;2023-07-20T09:15:56;4.87;;;4.37;;
8714;SDS011;4394;51.208;8.904;2023-07-20T09:18:46;4.87;;;4.37;;
8714;SDS011;4394;51.208;8.904;2023-07-20T09:21:34;4.27;;;3.93;;
8714;SDS011;4394;51.208;8.904;2023-07-20T09:24:24;4.25;;;3.92;;
8714;SDS011;4394;51.208;8.904;2023-07-20T09:27:16;4.20;;;3.90;;
8714;SDS011;4394;51.208;8.904;2023-07-20T09:30:05;4.03;;;3.73;;
8714;SDS011;4394;51.208;8.904;2023-07-20T09:32:54;3.83;;;3.47;;
8714;SDS011;4394;51.208;8.904;2023-07-20T09:35:43;3.70;;;3.40;;
8714;SDS011;4394;51.208;8.904;2023-07-20T09:38:41;3.03;;;2.83;;
8714;SDS011;4394;51.208;8.904;2023-07-20T09:41:40;3.10;;;2.90;;
8714;SDS011;4394;51.208;8.904;2023-07-20T09:44:32;3.67;;;3.37;;
8714;SDS011;4394;51.208;8.904;2023-07-20T09:47:23;4.30;;;3.90;;
8714;SDS011;4394;51.208;8.904;2023-07-20T09:50:14;4.07;;;3.70;;
8714;SDS011;4394;51.208;8.904;2023-07-20T09:53:05;3.70;;;3.40;;
8714;SDS011;4394;51.208;8.904;2023-07-20T09:55:57;4.93;;;4.20;;
8714;SDS011;4394;51.208;8.904;2023-07-20T09:58:47;4.43;;;4.07;;
8714;SDS011;4394;51.208;8.904;2023-07-20T10:01:35;4.50;;;4.10;;
8714;SDS011;4394;51.208;8.904;2023-07-20T10:04:25;3.63;;;3.40;;
8714;SDS011;4394;51.208;8.904;2023-07-20T10:07:16;3.30;;;3.00;;
8714;SDS011;4394;51.208;8.904;2023-07-20T10:10:07;3.47;;;2.80;;
8714;SDS011;4394;51.208;8.904;2023-07-20T10:12:58;3.40;;;3.10;;
8714;SDS011;4394;51.208;8.904;2023-07-20T10:15:53;3.33;;;2.73;;
8714;SDS011;4394;51.208;8.904;2023-07-20T10:18:45;2.97;;;2.77;;
8714;SDS011;4394;51.208;8.904;2023-07-20T10:21:40;2.70;;;2.50;;
8714;SDS011;4394;51.208;8.904;2023-07-20T10:24:30;2.97;;;2.43;;
8714;SDS011;4394;51.208;8.904;2023-07-20T10:27:19;2.17;;;2.00;;
8714;SDS011;4394;51.208;8.904;2023-07-20T10:30:08;2.07;;;1.97;;
8714;SDS011;4394;51.208;8.904;2023-07-20T10:32:58;2.10;;;1.90;;
8714;SDS011;4394;51.208;8.904;2023-07-20T10:35:52;1.80;;;1.50;;
8714;SDS011;4394;51.208;8.904;2023-07-20T10:38:41;2.37;;;1.80;;
8714;SDS011;4394;51.208;8.904;2023-07-20T10:41:33;1.77;;;1.67;;
8714;SDS011;4394;51.208;8.904;2023-07-20T10:44:22;2.20;;;1.50;;
8714;SDS011;4394;51.208;8.904;2023-07-20T10:47:11;1.50;;;1.40;;
8714;SDS011;4394;51.208;8.904;2023-07-20T10:50:01;1.40;;;1.30;;
8714;SDS011;4394;51.208;8.904;2023-07-20T10:53:03;1.47;;;1.30;;
8714;SDS011;4394;51.208;8.904;2023-07-20T10:55:59;1.40;;;1.30;;
8714;SDS011;4394;51.208;8.904;2023-07-20T10:58:55;2.50;;;1.50;;
8714;SDS011;4394;51.208;8.904;2023-07-20T11:01:44;1.40;;;1.30;;
8714;SDS011;4394;51.208;8.904;2023-07-20T11:04:39;1.50;;;1.40;;
8714;SDS011;4394;51.208;8.904;2023-07-20T11:07:37;1.90;;;1.70;;
8714;SDS011;4394;51.208;8.904;2023-07-20T11:10:25;1.57;;;1.27;;
8714;SDS011;4394;51.208;8.904;2023-07-20T11:13:17;1.23;;;1.10;;
8714;SDS011;4394;51.208;8.904;2023-07-20T11:16:06;2.03;;;1.20;;
8714;SDS011;4394;51.208;8.904;2023-07-20T11:18:54;4.03;;;1.30;;
8714;SDS011;4394;51.208;8.904;2023-07-20T11:21:43;1.10;;;1.10;;
8714;SDS011;4394;51.208;8.904;2023-07-20T11:24:49;2.00;;;1.43;;
8714;SDS011;4394;51.208;8.904;2023-07-20T11:27:43;1.27;;;1.17;;
8714;SDS011;4394;51.208;8.904;2023-07-20T11:30:33;1.50;;;1.30;;
8714;SDS011;4394;51.208;8.904;2023-07-20T11:33:22;1.50;;;1.40;;
8714;SDS011;4394;51.208;8.904;2023-07-20T11:36:10;1.00;;;1.00;;
8714;SDS011;4394;51.208;8.904;2023-07-20T11:39:00;1.30;;;1.20;;
8714;SDS011;4394;51.208;8.904;2023-07-20T11:41:52;1.67;;;1.27;;
8714;SDS011;4394;51.208;8.904;2023-07-20T11:44:42;1.40;;;1.30;;
8714;SDS011;4394;51.208;8.904;2023-07-20T11:47:30;1.43;;;1.33;;
8714;SDS011;4394;51.208;8.904;2023-07-20T11:50:18;1.40;;;1.30;;
8714;SDS011;4394;51.208;8.904;2023-07-20T11:53:06;1.00;;;1.00;;
8714;SDS011;4394;51.208;8.904;2023-07-20T11:55:55;1.40;;;1.30;;
8714;SDS011;4394;51.208;8.904;2023-07-20T11:58:45;1.00;;;1.00;;
8714;SDS011;4394;51.208;8.904;2023-07-20T12:01:33;1.60;;;1.40;;
8714;SDS011;4394;51.208;8.904;2023-07-20T12:04:22;2.33;;;1.23;;
8714;SDS011;4394;51.208;8.904;2023-07-20T12:07:10;1.30;;;1.20;;
8714;SDS011;4394;51.208;8.904;2023-07-20T12:10:03;0.90;;;0.90;;
8714;SDS011;4394;51.208;8.904;2023-07-20T12:12:52;1.23;;;1.17;;
8714;SDS011;4394;51.208;8.904;2023-07-20T12:15:42;1.50;;;1.40;;
8714;SDS011;4394;51.208;8.904;2023-07-20T12:18:34;1.60;;;1.50;;
8714;SDS011;4394;51.208;8.904;2023-07-20T12:21:23;1.77;;;1.23;;
8714;SDS011;4394;51.208;8.904;2023-07-20T12:24:11;2.10;;;1.03;;
8714;SDS011;4394;51.208;8.904;2023-07-20T12:26:59;2.10;;;1.10;;
8714;SDS011;4394;51.208;8.904;2023-07-20T12:29:47;1.27;;;1.17;;
8714;SDS011;4394;51.208;8.904;2023-07-20T12:32:36;1.30;;;1.13;;
8714;SDS011;4394;51.208;8.904;2023-07-20T12:35:24;1.67;;;1.10;;
8714;SDS011;4394;51.208;8.904;2023-07-20T12:38:12;0.93;;;0.93;;
8714;SDS011;4394;51.208;8.904;2023-07-20T12:41:01;1.30;;;1.20;;
8714;SDS011;4394;51.208;8.904;2023-07-20T12:43:49;0.87;;;0.87;;
8714;SDS011;4394;51.208;8.904;2023-07-20T12:46:37;1.13;;;0.90;;
8714;SDS011;4394;51.208;8.904;2023-07-20T12:49:27;2.10;;;1.20;;
8714;SDS011;4394;51.208;8.904;2023-07-20T12:52:15;1.27;;;1.10;;
8714;SDS011;4394;51.208;8.904;2023-07-20T12:55:03;1.80;;;1.20;;
8714;SDS011;4394;51.208;8.904;2023-07-20T12:57:52;1.17;;;1.07;;
8714;SDS011;4394;51.208;8.904;2023-07-20T13:00:40;0.93;;;0.93;;
8714;SDS011;4394;51.208;8.904;2023-07-20T13:03:29;1.17;;;1.10;;
8714;SDS011;4394;51.208;8.904;2023-07-20T13:06:19;1.77;;;1.10;;
8714;SDS011;4394;51.208;8.904;2023-07-20T13:09:10;1.90;;;1.27;;
8714;SDS011;4394;51.208;8.904;2023-07-20T13:11:59;1.70;;;1.30;;
8714;SDS011;4394;51.208;8.904;2023-07-20T13:14:47;1.23;;;1.13;;
8714;SDS011;4394;51.208;8.904;2023-07-20T13:17:36;1.20;;;1.20;;
8714;SDS011;4394;51.208;8.904;2023-07-20T13:20:25;1.30;;;1.20;;
8714;SDS011;4394;51.208;8.904;2023-07-20T13:23:15;1.30;;;1.20;;
8714;SDS011;4394;51.208;8.904;2023-07-20T13:26:04;1.10;;;1.10;;
8714;SDS011;4394;51.208;8.904;2023-07-20T13:28:54;1.40;;;1.00;;
8714;SDS011;4394;51.208;8.904;2023-07-20T13:31:43;0.70;;;0.70;;
8714;SDS011;4394;51.208;8.904;2023-07-20T13:34:34;1.93;;;0.97;;
8714;SDS011;4394;51.208;8.904;2023-07-20T13:37:25;1.13;;;0.77;;
8714;SDS011;4394;51.208;8.904;2023-07-20T13:40:16;1.33;;;1.10;;
8714;SDS011;4394;51.208;8.904;2023-07-20T13:43:05;0.70;;;0.70;;
8714;SDS011;4394;51.208;8.904;2023-07-20T13:45:53;0.87;;;0.87;;
8714;SDS011;4394;51.208;8.904;2023-07-20T13:48:41;1.40;;;1.00;;
8714;SDS011;4394;51.208;8.904;2023-07-20T13:51:30;1.43;;;0.90;;
8714;SDS011;4394;51.208;8.904;2023-07-20T13:54:19;1.00;;;0.90;;
8714;SDS011;4394;51.208;8.904;2023-07-20T13:57:11;0.87;;;0.87;;
8714;SDS011;4394;51.208;8.904;2023-07-20T14:00:01;0.93;;;0.93;;
8714;SDS011;4394;51.208;8.904;2023-07-20T14:02:50;1.93;;;1.20;;
8714;SDS011;4394;51.208;8.904;2023-07-20T14:05:41;1.30;;;1.13;;
8714;SDS011;4394;51.208;8.904;2023-07-20T14:08:33;1.20;;;1.10;;
8714;SDS011;4394;51.208;8.904;2023-07-20T14:11:21;1.00;;;0.90;;
8714;SDS011;4394;51.208;8.904;2023-07-20T14:14:14;1.50;;;1.20;;
8714;SDS011;4394;51.208;8.904;2023-07-20T14:17:03;1.30;;;1.20;;
8714;SDS011;4394;51.208;8.904;2023-07-20T14:19:52;0.87;;;0.87;;
8714;SDS011;4394;51.208;8.904;2023-07-20T14:22:40;1.37;;;0.90;;
8714;SDS011;4394;51.208;8.904;2023-07-20T14:25:29;1.10;;;1.10;;
8714;SDS011;4394;51.208;8.904;2023-07-20T14:28:20;1.67;;;1.03;;
8714;SDS011;4394;51.208;8.904;2023-07-20T14:31:09;1.73;;;1.10;;
8714;SDS011;4394;51.208;8.904;2023-07-20T14:33:57;1.30;;;1.20;;
8714;SDS011;4394;51.208;8.904;2023-07-20T14:36:46;2.47;;;1.20;;
8714;SDS011;4394;51.208;8.904;2023-07-20T14:39:34;1.17;;;1.17;;
8714;SDS011;4394;51.208;8.904;2023-07-20T14:42:22;1.60;;;0.93;;
8714;SDS011;4394;51.208;8.904;2023-07-20T14:45:11;1.37;;;1.27;;
8714;SDS011;4394;51.208;8.904;2023-07-20T14:48:01;1.43;;;1.33;;
8714;SDS011;4394;51.208;8.904;2023-07-20T14:50:49;1.30;;;1.20;;
8714;SDS011;4394;51.208;8.904;2023-07-20T14:53:38;1.20;;;1.10;;
8714;SDS011;4394;51.208;8.904;2023-07-20T14:56:26;1.33;;;1.23;;
8714;SDS011;4394;51.208;8.904;2023-07-20T14:59:14;1.37;;;1.23;;
8714;SDS011;4394;51.208;8.904;2023-07-20T15:02:04;1.40;;;1.30;;
8714;SDS011;4394;51.208;8.904;2023-07-20T15:04:54;1.27;;;1.20;;
8714;SDS011;4394;51.208;8.904;2023-07-20T15:07:43;1.40;;;1.30;;
8714;SDS011;4394;51.208;8.904;2023-07-20T15:10:31;1.45;;;1.35;;
8714;SDS011;4394;51.208;8.904;2023-07-20T15:13:20;1.47;;;1.27;;
8714;SDS011;4394;51.208;8.904;2023-07-20T15:16:08;1.40;;;1.30;;
8714;SDS011;4394;51.208;8.904;2023-07-20T15:18:57;1.40;;;1.30;;
8714;SDS011;4394;51.208;8.904;2023-07-20T15:21:47;1.23;;;1.23;;
8714;SDS011;4394;51.208;8.904;2023-07-20T15:24:35;1.67;;;1.57;;
8714;SDS011;4394;51.208;8.904;2023-07-20T15:27:23;1.83;;;1.10;;
8714;SDS011;4394;51.208;8.904;2023-07-20T15:30:11;1.37;;;1.27;;
8714;SDS011;4394;51.208;8.904;2023-07-20T15:33:20;1.40;;;1.30;;
8714;SDS011;4394;51.208;8.904;2023-07-20T15:36:12;1.70;;;1.20;;
8714;SDS011;4394;51.208;8.904;2023-07-20T15:39:02;1.40;;;1.30;;
8714;SDS011;4394;51.208;8.904;2023-07-20T15:41:50;1.40;;;1.30;;
8714;SDS011;4394;51.208;8.904;2023-07-20T15:44:39;1.10;;;1.00;;
8714;SDS011;4394;51.208;8.904;2023-07-20T15:47:27;1.50;;;1.40;;
8714;SDS011;4394;51.208;8.904;2023-07-20T15:50:15;1.83;;;1.60;;
8714;SDS011;4394;51.208;8.904;2023-07-20T15:53:07;1.40;;;1.30;;
8714;SDS011;4394;51.208;8.904;2023-07-20T15:55:57;1.40;;;1.30;;
8714;SDS011;4394;51.208;8.904;2023-07-20T15:58:46;1.67;;;1.37;;
8714;SDS011;4394;51.208;8.904;2023-07-20T16:01:34;1.67;;;1.30;;
8714;SDS011;4394;51.208;8.904;2023-07-20T16:04:23;1.43;;;1.33;;
8714;SDS011;4394;51.208;8.904;2023-07-20T16:07:11;1.23;;;1.20;;
8714;SDS011;4394;51.208;8.904;2023-07-20T16:09:59;1.53;;;1.37;;
8714;SDS011;4394;51.208;8.904;2023-07-20T16:12:50;1.13;;;1.13;;
8714;SDS011;4394;51.208;8.904;2023-07-20T16:15:38;1.27;;;1.20;;
8714;SDS011;4394;51.208;8.904;2023-07-20T16:18:29;2.03;;;1.20;;
8714;SDS011;4394;51.208;8.904;2023-07-20T16:21:17;1.30;;;1.20;;
8714;SDS011;4394;51.208;8.904;2023-07-20T16:24:06;1.33;;;1.23;;
8714;SDS011;4394;51.208;8.904;2023-07-20T16:26:54;1.90;;;1.27;;
8714;SDS011;4394;51.208;8.904;2023-07-20T16:29:44;1.63;;;1.40;;
8714;SDS011;4394;51.208;8.904;2023-07-20T16:32:32;1.27;;;1.17;;
8714;SDS011;4394;51.208;8.904;2023-07-20T16:35:20;1.97;;;1.10;;
8714;SDS011;4394;51.208;8.904;2023-07-20T16:38:28;1.20;;;1.10;;
8714;SDS011;4394;51.208;8.904;2023-07-20T16:41:28;1.03;;;1.00;;
8714;SDS011;4394;51.208;8.904;2023-07-20T16:44:20;4.03;;;2.47;;
8714;SDS011;4394;51.208;8.904;2023-07-20T16:47:09;1.40;;;1.30;;
8714;SDS011;4394;51.208;8.904;2023-07-20T16:49:57;1.30;;;1.20;;
8714;SDS011;4394;51.208;8.904;2023-07-20T16:52:45;1.00;;;1.00;;
8714;SDS011;4394;51.208;8.904;2023-07-20T16:55:33;1.27;;;1.20;;
8714;SDS011;4394;51.208;8.904;2023-07-20T16:58:27;2.03;;;1.20;;
8714;SDS011;4394;51.208;8.904;2023-07-20T17:01:15;1.10;;;1.03;;
8714;SDS011;4394;51.208;8.904;2023-07-20T17:04:05;1.10;;;1.00;;
8714;SDS011;4394;51.208;8.904;2023-07-20T17:06:53;1.30;;;1.20;;
8714;SDS011;4394;51.208;8.904;2023-07-20T17:09:41;1.40;;;1.30;;
8714;SDS011;4394;51.208;8.904;2023-07-20T17:12:29;1.23;;;1.13;;
8714;SDS011;4394;51.208;8.904;2023-07-20T17:15:18;1.40;;;1.30;;
8714;SDS011;4394;51.208;8.904;2023-07-20T17:18:06;1.73;;;1.30;;
8714;SDS011;4394;51.208;8.904;2023-07-20T17:20:55;1.43;;;1.00;;
8714;SDS011;4394;51.208;8.904;2023-07-20T17:23:43;2.20;;;2.00;;
8714;SDS011;4394;51.208;8.904;2023-07-20T17:26:35;1.27;;;1.17;;
8714;SDS011;4394;51.208;8.904;2023-07-20T17:29:26;1.20;;;1.10;;
8714;SDS011;4394;51.208;8.904;2023-07-20T17:32:14;1.27;;;1.17;;